Time;durP1;ratioP1;P1;durP2;ratioP2;P2;SDS_P1;SDS_P2;PMS_P1;PMS_P2;Temp;Humidity;BMP_temperature;BMP_pressure;BME280_temperature;BME280_humidity;BME280_pressure;Samples;Min_cycle;Max_cycle;Signal;HPM_P1;HPM_P2
2022/06/25 00:01:14;;;;;;;13.82;8.23;;;25.00;60.90;;;;;;4968049;28;20404;-71
2022/06/25 00:03:42;;;;;;;13.95;7.93;;;25.00;61.20;;;;;;4995348;23;20045;-74
2022/06/25 00:06:09;;;;;;;13.45;7.90;;;25.00;60.70;;;;;;4986598;28;20071;-72
2022/06/25 00:08:36;;;;;;;16.13;8.82;;;25.00;60.60;;;;;;5004023;28;20030;-75
2022/06/25 00:11:03;;;;;;;12.57;7.95;;;25.00;60.60;;;;;;4987911;28;20023;-73
2022/06/25 00:13:29;;;;;;;12.13;7.00;;;25.00;60.60;;;;;;4988706;28;20041;-73
2022/06/25 00:15:55;;;;;;;10.65;6.70;;;25.00;60.50;;;;;;4990006;28;20038;-73
2022/06/25 00:18:21;;;;;;;10.95;7.22;;;24.90;60.60;;;;;;5004765;28;20040;-73
2022/06/25 00:20:47;;;;;;;10.80;7.03;;;24.90;60.30;;;;;;4987526;28;20377;-74
2022/06/25 00:23:13;;;;;;;9.93;6.97;;;24.90;61.10;;;;;;4989218;28;20103;-73
2022/06/25 00:25:39;;;;;;;9.60;6.50;;;24.90;61.10;;;;;;4970360;28;20122;-72
2022/06/25 00:28:06;;;;;;;8.82;6.07;;;24.90;61.40;;;;;;4989801;28;20105;-73
2022/06/25 00:30:33;;;;;;;10.82;7.25;;;24.90;60.90;;;;;;4990520;28;20027;-73
2022/06/25 00:32:59;;;;;;;11.07;6.95;;;24.90;61.10;;;;;;4990509;28;20030;-73
2022/06/25 00:35:26;;;;;;;13.27;8.20;;;24.90;60.60;;;;;;4983846;28;20078;-73
2022/06/25 00:37:52;;;;;;;19.10;10.93;;;24.90;61.00;;;;;;4981178;28;20034;-72
2022/06/25 00:40:18;;;;;;;18.65;11.05;;;24.90;61.50;;;;;;5004448;28;20512;-75
2022/06/25 00:42:47;;;;;;;24.15;10.60;;;24.90;62.30;;;;;;4991857;28;20117;-74
2022/06/25 00:45:13;;;;;;;;;;;24.90;62.20;;;;;;4989554;28;20460;-72
2022/06/25 00:47:41;;;;;;;16.33;10.75;;;25.00;62.20;;;;;;4980321;28;19996;-72
2022/06/25 00:50:08;;;;;;;15.48;10.02;;;25.00;61.30;;;;;;4973589;28;20026;-72
2022/06/25 00:52:35;;;;;;;17.90;10.13;;;24.90;61.10;;;;;;4982490;28;20387;-72
2022/06/25 00:55:06;;;;;;;19.73;9.65;;;25.00;61.10;;;;;;4981903;28;20086;-72
2022/06/25 00:57:34;;;;;;;16.50;9.32;;;25.00;61.00;;;;;;4985931;28;20027;-72
2022/06/25 01:00:06;;;;;;;16.65;10.07;;;25.00;61.10;;;;;;4978526;28;20586;-72
2022/06/25 01:02:32;;;;;;;17.80;9.48;;;25.00;61.10;;;;;;4987552;28;20142;-71
2022/06/25 01:04:58;;;;;;;18.95;9.88;;;25.00;61.00;;;;;;4969966;28;20058;-72
2022/06/25 01:07:24;;;;;;;15.55;9.43;;;25.00;61.00;;;;;;4989593;28;20399;-72
2022/06/25 01:09:51;;;;;;;17.95;9.07;;;25.00;61.00;;;;;;4977226;28;20441;-72
2022/06/25 01:12:17;;;;;;;14.07;10.43;;;25.00;61.20;;;;;;4986579;28;20110;-72
2022/06/25 01:14:44;;;;;;;14.60;9.27;;;25.00;61.50;;;;;;4993203;28;20434;-72
2022/06/25 01:17:10;;;;;;;15.45;9.65;;;25.00;61.00;;;;;;4993822;28;20037;-72
2022/06/25 01:19:37;;;;;;;15.50;9.60;;;25.00;61.10;;;;;;4989386;28;20042;-72
2022/06/25 01:22:07;;;;;;;17.90;10.55;;;25.00;61.30;;;;;;5004999;28;20034;-72
2022/06/25 01:24:34;;;;;;;16.63;9.93;;;25.00;61.10;;;;;;4982734;28;20023;-71
2022/06/25 01:27:00;;;;;;;18.42;10.23;;;25.00;61.10;;;;;;4981415;28;20121;-72
2022/06/25 01:29:26;;;;;;;15.18;10.05;;;25.00;61.10;;;;;;4969839;28;20031;-72
2022/06/25 01:31:52;;;;;;;17.60;11.48;;;25.00;61.20;;;;;;4995135;28;20437;-72
2022/06/25 01:34:18;;;;;;;16.42;11.65;;;25.00;61.20;;;;;;5001934;28;20030;-72
2022/06/25 01:36:44;;;;;;;17.70;11.35;;;25.00;61.50;;;;;;4990324;28;20130;-72
2022/06/25 01:39:10;;;;;;;17.42;12.20;;;25.00;61.40;;;;;;4989327;28;20117;-72
2022/06/25 01:41:36;;;;;;;19.30;13.52;;;25.00;61.30;;;;;;4977716;28;20080;-72
2022/06/25 01:44:02;;;;;;;17.90;12.05;;;25.00;62.10;;;;;;5010102;28;20430;-71
2022/06/25 01:46:28;;;;;;;18.08;12.13;;;25.00;61.40;;;;;;4993220;28;20045;-71
2022/06/25 01:48:54;;;;;;;18.55;13.55;;;24.90;61.50;;;;;;4968421;28;20081;-71
2022/06/25 01:51:20;;;;;;;18.52;13.07;;;25.00;61.40;;;;;;4994582;28;20086;-71
2022/06/25 01:53:48;;;;;;;19.63;13.80;;;25.00;61.40;;;;;;4981390;28;20070;-72
2022/06/25 01:56:14;;;;;;;16.98;13.32;;;24.90;61.50;;;;;;4974513;28;20032;-71
2022/06/25 01:58:40;;;;;;;17.33;13.05;;;25.00;62.00;;;;;;4984719;28;20027;-71
2022/06/25 02:01:06;;;;;;;19.67;13.50;;;24.90;61.70;;;;;;4992656;28;20097;-71
2022/06/25 02:03:32;;;;;;;17.10;13.40;;;24.90;61.50;;;;;;4984223;28;20479;-72
2022/06/25 02:05:58;;;;;;;19.95;13.73;;;25.00;61.50;;;;;;4992260;28;20080;-71
2022/06/25 02:08:27;;;;;;;18.70;13.35;;;25.00;61.80;;;;;;4992401;28;20438;-71
2022/06/25 02:10:53;;;;;;;19.50;13.63;;;25.00;61.70;;;;;;5003041;28;20023;-71
2022/06/25 02:13:19;;;;;;;17.88;13.13;;;24.90;62.00;;;;;;4993424;28;20045;-72
2022/06/25 02:15:45;;;;;;;20.70;13.80;;;25.00;62.10;;;;;;4981094;28;20074;-72
2022/06/25 02:18:11;;;;;;;18.67;12.13;;;25.00;61.80;;;;;;4988025;28;20022;-71
2022/06/25 02:20:39;;;;;;;19.75;13.52;;;24.90;62.00;;;;;;4986938;28;20421;-72
2022/06/25 02:23:06;;;;;;;17.02;12.90;;;24.90;62.00;;;;;;5000927;28;20035;-71
2022/06/25 02:25:32;;;;;;;17.77;12.38;;;25.00;62.30;;;;;;5009348;28;20042;-72
2022/06/25 02:27:58;;;;;;;16.80;13.23;;;24.90;62.10;;;;;;4974300;28;20041;-72
2022/06/25 02:30:24;;;;;;;17.35;12.32;;;25.00;62.20;;;;;;5006451;28;20030;-72
2022/06/25 02:32:50;;;;;;;19.45;12.93;;;24.90;62.00;;;;;;4986331;28;20097;-72
2022/06/25 02:35:16;;;;;;;17.95;12.95;;;25.00;62.20;;;;;;4990208;28;20022;-72
2022/06/25 02:37:42;;;;;;;19.58;12.98;;;25.00;62.50;;;;;;5005290;28;20026;-72
2022/06/25 02:40:12;;;;;;;16.83;12.10;;;24.90;62.40;;;;;;4967744;28;20042;-71
2022/06/25 02:42:41;;;;;;;17.50;12.50;;;24.90;62.40;;;;;;5008799;28;20034;-72
2022/06/25 02:45:09;;;;;;;15.68;12.57;;;25.00;62.50;;;;;;4967755;28;20257;-72
2022/06/25 02:47:37;;;;;;;17.27;12.85;;;24.90;62.20;;;;;;4979805;28;20328;-72
2022/06/25 02:50:08;;;;;;;19.63;13.75;;;25.00;62.10;;;;;;4992389;28;20056;-71
2022/06/25 02:52:35;;;;;;;18.13;13.05;;;24.90;62.30;;;;;;4987409;28;20050;-71
2022/06/25 02:55:01;;;;;;;16.98;13.00;;;25.00;62.40;;;;;;4984178;28;20033;-72
2022/06/25 03:00:21;;;;;;;17.33;12.48;;;25.00;62.50;;;;;;4975608;28;20114;-71
2022/06/25 03:02:48;;;;;;;17.67;11.75;;;25.00;62.20;;;;;;4986197;28;20426;-71
2022/06/25 03:05:14;;;;;;;16.48;11.73;;;24.90;62.20;;;;;;4988830;28;20033;-73
2022/06/25 03:07:40;;;;;;;19.02;11.77;;;24.90;62.30;;;;;;4988309;28;20109;-72
2022/06/25 03:10:08;;;;;;;16.23;12.55;;;25.00;62.20;;;;;;4988921;28;20030;-72
2022/06/25 03:12:35;;;;;;;18.00;13.23;;;25.00;62.60;;;;;;4983384;28;20561;-72
2022/06/25 03:15:15;;;;;;;15.68;12.27;;;24.90;62.90;;;;;;4991668;28;20355;-73
2022/06/25 03:17:42;;;;;;;17.30;12.65;;;25.00;62.60;;;;;;4982958;28;20046;-73
2022/06/25 03:20:26;;;;;;;17.15;12.65;;;24.90;62.70;;;;;;4989987;28;20145;-72
2022/06/25 03:22:56;;;;;;;18.77;13.07;;;24.90;62.60;;;;;;4982123;28;20088;-72
2022/06/25 03:25:23;;;;;;;18.45;12.93;;;24.90;62.70;;;;;;5005583;28;20114;-71
2022/06/25 03:27:49;;;;;;;17.00;12.88;;;24.90;62.80;;;;;;4978292;28;20497;-72
2022/06/25 03:30:16;;;;;;;16.65;12.85;;;24.90;62.80;;;;;;4974692;28;20478;-72
2022/06/25 03:32:42;;;;;;;20.55;13.13;;;24.90;62.80;;;;;;4966797;28;20027;-73
2022/06/25 03:35:26;;;;;;;16.77;12.75;;;24.90;62.80;;;;;;4990693;28;20390;-72
2022/06/25 03:38:11;;;;;;;16.48;12.82;;;24.90;62.80;;;;;;4975405;28;20034;-72
2022/06/25 03:40:38;;;;;;;16.52;12.23;;;24.90;62.90;;;;;;4987587;28;20027;-72
2022/06/25 03:43:07;;;;;;;17.17;13.07;;;25.00;62.60;;;;;;4995576;28;20023;-72
2022/06/25 03:45:35;;;;;;;18.48;13.05;;;24.90;62.90;;;;;;4990442;28;20105;-73
2022/06/25 03:48:02;;;;;;;18.17;13.07;;;24.90;62.90;;;;;;5007639;28;20026;-72
2022/06/25 03:50:33;;;;;;;17.45;13.32;;;24.90;63.00;;;;;;4999534;28;20029;-72
2022/06/25 03:52:59;;;;;;;16.27;13.13;;;24.90;63.20;;;;;;4988082;28;20394;-72
2022/06/25 03:55:25;;;;;;;17.40;13.38;;;24.90;62.80;;;;;;4981721;28;20027;-72
2022/06/25 03:57:51;;;;;;;17.40;12.50;;;24.90;62.90;;;;;;4981997;28;20022;-72
2022/06/25 04:00:23;;;;;;;16.25;13.35;;;24.90;62.90;;;;;;4987778;28;20042;-72
2022/06/25 04:02:54;;;;;;;18.63;13.75;;;24.90;63.10;;;;;;4990238;28;20033;-72
2022/06/25 04:05:30;;;;;;;17.65;13.25;;;24.90;63.00;;;;;;4988856;28;20494;-72
2022/06/25 04:08:18;;;;;;;19.42;13.98;;;24.90;63.10;;;;;;4987422;28;20058;-72
2022/06/25 04:10:45;;;;;;;17.92;13.15;;;24.90;63.10;;;;;;4982559;28;20081;-72
2022/06/25 04:13:11;;;;;;;17.50;13.50;;;24.90;63.20;;;;;;4989737;28;20034;-72
2022/06/25 04:15:37;;;;;;;19.73;14.00;;;24.90;63.30;;;;;;4983431;28;20478;-72
2022/06/25 04:18:04;;;;;;;20.27;13.63;;;24.90;63.30;;;;;;4987866;28;20449;-72
2022/06/25 04:20:32;;;;;;;18.00;13.75;;;24.90;63.30;;;;;;5006670;28;20048;-72
2022/06/25 04:22:59;;;;;;;19.40;14.07;;;24.90;62.90;;;;;;4990995;28;20363;-72
2022/06/25 04:25:26;;;;;;;18.27;13.98;;;24.90;62.90;;;;;;5002477;28;20034;-72
2022/06/25 04:30:37;;;;;;;17.13;13.55;;;24.90;62.90;;;;;;4970180;28;20066;-72
2022/06/25 04:33:03;;;;;;;17.63;13.70;;;24.90;63.20;;;;;;5001355;28;20050;-72
2022/06/25 04:35:33;;;;;;;18.98;13.18;;;25.00;63.30;;;;;;5000186;28;20030;-72
2022/06/25 04:38:08;;;;;;;19.95;14.02;;;25.00;63.30;;;;;;4981360;28;20082;-72
2022/06/25 04:40:35;;;;;;;19.40;14.15;;;25.00;63.30;;;;;;4978528;28;20039;-72
2022/06/25 04:43:01;;;;;;;17.35;13.15;;;25.00;63.20;;;;;;4998965;28;20418;-72
2022/06/25 04:45:27;;;;;;;17.05;13.05;;;25.00;63.00;;;;;;4986312;28;20049;-72
2022/06/25 04:48:11;;;;;;;19.45;12.70;;;25.00;63.50;;;;;;4995873;28;20471;-72
2022/06/25 04:51:00;;;;;;;22.80;13.97;;;25.00;63.20;;;;;;4976232;28;20081;-72
2022/06/25 04:53:26;;;;;;;17.13;13.50;;;24.90;64.00;;;;;;4994751;28;20058;-72
2022/06/25 04:55:52;;;;;;;16.98;12.25;;;24.90;63.10;;;;;;4986871;28;20085;-73
2022/06/25 04:58:18;;;;;;;36.03;13.70;;;24.90;63.50;;;;;;5009311;28;20470;-72
2022/06/25 05:01:13;;;;;;;18.33;13.13;;;24.90;63.20;;;;;;4985906;28;20030;-72
2022/06/25 05:03:39;;;;;;;16.38;12.52;;;24.90;63.50;;;;;;4995575;28;20037;-72
2022/06/25 05:06:09;;;;;;;16.70;12.93;;;25.00;63.60;;;;;;4985254;28;20533;-72
2022/06/25 05:08:35;;;;;;;18.20;12.52;;;24.90;63.60;;;;;;5003164;28;20462;-72
2022/06/25 05:11:02;;;;;;;17.10;13.02;;;24.90;63.70;;;;;;4985717;28;20046;-72
2022/06/25 05:13:27;;;;;;;15.73;12.27;;;24.90;63.70;;;;;;5006004;28;20490;-72
2022/06/25 05:15:53;;;;;;;18.45;13.32;;;24.90;63.40;;;;;;4985168;28;20105;-72
2022/06/25 05:18:19;;;;;;;17.52;14.02;;;24.90;63.40;;;;;;4975692;28;20061;-72
2022/06/25 05:20:46;;;;;;;16.83;12.27;;;24.90;63.50;;;;;;4987928;28;20395;-72
2022/06/25 05:23:13;;;;;;;16.15;12.98;;;25.00;63.80;;;;;;4976693;28;20041;-72
2022/06/25 05:25:39;;;;;;;18.08;14.38;;;25.00;63.90;;;;;;4970242;28;20483;-72
2022/06/25 05:28:06;;;;;;;18.25;13.52;;;24.90;63.80;;;;;;5010345;28;20509;-72
2022/06/25 05:30:32;;;;;;;19.02;13.88;;;24.90;63.70;;;;;;4995069;28;20045;-72
2022/06/25 05:32:59;;;;;;;18.40;13.63;;;25.00;63.60;;;;;;4992963;28;20034;-72
2022/06/25 05:35:24;;;;;;;17.50;13.73;;;25.00;63.70;;;;;;4994960;28;20100;-72
2022/06/25 05:37:51;;;;;;;20.80;15.18;;;25.00;63.50;;;;;;5010060;28;20478;-72
2022/06/25 05:40:17;;;;;;;19.83;14.48;;;25.00;64.00;;;;;;4977550;28;20109;-72
2022/06/25 05:42:43;;;;;;;19.23;13.82;;;25.00;63.70;;;;;;4985099;28;20390;-72
2022/06/25 05:45:09;;;;;;;16.92;13.35;;;25.00;63.40;;;;;;4993770;28;20030;-72
2022/06/25 05:47:35;;;;;;;17.42;14.15;;;25.00;63.50;;;;;;4985880;28;20030;-72
2022/06/25 05:50:01;;;;;;;17.92;14.07;;;25.00;63.70;;;;;;4990602;28;20027;-72
2022/06/25 05:52:27;;;;;;;17.70;13.48;;;25.00;63.80;;;;;;4986484;28;20109;-72
2022/06/25 05:54:53;;;;;;;17.48;13.88;;;25.00;63.60;;;;;;4992200;28;20076;-72
2022/06/25 05:57:19;;;;;;;18.65;14.00;;;25.00;63.80;;;;;;5001466;28;20097;-72
2022/06/25 05:59:45;;;;;;;17.10;13.35;;;25.00;63.90;;;;;;4994550;28;20026;-72
2022/06/25 06:02:11;;;;;;;18.25;13.27;;;25.00;64.20;;;;;;5008668;28;20053;-72
2022/06/25 06:04:37;;;;;;;16.08;12.68;;;25.00;64.20;;;;;;5009901;23;20134;-69
2022/06/25 06:07:05;;;;;;;17.88;12.93;;;25.00;63.90;;;;;;4977411;28;20103;-69
2022/06/25 06:09:33;;;;;;;16.85;12.40;;;25.00;63.70;;;;;;4984288;28;20391;-69
2022/06/25 06:12:00;;;;;;;15.65;11.77;;;25.00;64.20;;;;;;4986379;28;20022;-69
2022/06/25 06:14:26;;;;;;;16.20;12.00;;;25.10;64.50;;;;;;5019012;28;20367;-69
2022/06/25 06:16:52;;;;;;;14.10;11.90;;;25.00;64.50;;;;;;5005472;28;20040;-70
2022/06/25 06:19:18;;;;;;;14.88;11.07;;;25.10;64.30;;;;;;5010136;28;20387;-70
2022/06/25 06:21:44;;;;;;;15.13;11.63;;;25.10;64.50;;;;;;5005559;28;20033;-69
2022/06/25 06:24:10;;;;;;;15.77;12.27;;;25.10;64.60;;;;;;5002564;28;20113;-70
2022/06/25 06:26:37;;;;;;;15.48;11.50;;;25.10;64.30;;;;;;5012516;28;20025;-69
2022/06/25 06:29:03;;;;;;;17.88;12.23;;;25.10;65.00;;;;;;4997603;28;20129;-69
2022/06/25 06:31:29;;;;;;;16.75;12.23;;;25.10;64.60;;;;;;4998660;28;20117;-70
2022/06/25 06:33:54;;;;;;;14.73;11.07;;;25.10;64.20;;;;;;5004119;28;20075;-70
2022/06/25 06:36:20;;;;;;;19.50;12.90;;;25.00;63.90;;;;;;4992338;28;20038;-70
2022/06/25 06:38:46;;;;;;;16.45;10.88;;;25.00;64.00;;;;;;5004429;28;20470;-70
2022/06/25 06:41:13;;;;;;;18.00;11.80;;;25.00;64.60;;;;;;5004212;28;20386;-69
2022/06/25 06:43:39;;;;;;;17.55;10.77;;;25.00;64.40;;;;;;5005391;28;20053;-69
2022/06/25 06:46:05;;;;;;;18.48;11.65;;;25.00;64.80;;;;;;5009004;28;20453;-69
2022/06/25 06:48:31;;;;;;;18.70;11.90;;;25.10;65.00;;;;;;5004643;28;20060;-69
2022/06/25 06:50:57;;;;;;;14.60;11.00;;;25.00;65.00;;;;;;5009774;28;20040;-69
2022/06/25 06:53:23;;;;;;;15.07;11.65;;;25.10;64.50;;;;;;5003301;28;20022;-70
2022/06/25 06:55:49;;;;;;;16.42;11.90;;;25.10;64.30;;;;;;5011375;28;20083;-69
2022/06/25 06:58:15;;;;;;;15.45;11.63;;;25.00;64.10;;;;;;4997991;28;20018;-70
2022/06/25 07:00:41;;;;;;;16.15;11.23;;;25.10;64.70;;;;;;5001331;28;20505;-69
2022/06/25 07:03:06;;;;;;;16.77;11.70;;;25.10;65.00;;;;;;4999878;28;21801;-69
2022/06/25 07:05:32;;;;;;;14.90;11.25;;;25.00;64.20;;;;;;5015847;28;20018;-69
2022/06/25 07:07:58;;;;;;;14.10;10.70;;;25.00;64.80;;;;;;5003757;28;20089;-70
2022/06/25 07:10:24;;;;;;;16.23;11.27;;;25.10;64.80;;;;;;5012978;28;20037;-70
2022/06/25 07:12:49;;;;;;;14.50;11.30;;;25.10;65.20;;;;;;4988072;28;20038;-69
2022/06/25 07:15:15;;;;;;;15.35;11.50;;;25.10;65.20;;;;;;4974052;28;20398;-70
2022/06/25 07:17:41;;;;;;;14.43;11.27;;;25.10;65.20;;;;;;5004403;28;20101;-69
2022/06/25 07:20:07;;;;;;;16.75;11.68;;;25.10;65.30;;;;;;5009280;28;20445;-69
2022/06/25 07:22:34;;;;;;;14.95;11.15;;;25.10;65.30;;;;;;5012828;28;20057;-69
2022/06/25 07:24:59;;;;;;;16.33;11.73;;;25.00;65.20;;;;;;5012836;28;20040;-69
2022/06/25 07:27:26;;;;;;;14.32;11.02;;;25.00;65.30;;;;;;5012248;28;20026;-69
2022/06/25 07:29:51;;;;;;;14.52;11.32;;;25.10;65.40;;;;;;5012664;28;20386;-69
2022/06/25 07:32:17;;;;;;;16.15;11.85;;;25.10;65.30;;;;;;4980847;28;20042;-69
2022/06/25 07:34:43;;;;;;;17.70;11.50;;;25.10;65.30;;;;;;4983421;28;20030;-68
2022/06/25 07:37:08;;;;;;;16.92;10.93;;;25.10;65.30;;;;;;4984363;28;20069;-71
2022/06/25 07:39:34;;;;;;;16.92;10.90;;;25.10;65.30;;;;;;5004068;28;20025;-69
2022/06/25 07:42:00;;;;;;;18.88;11.80;;;25.10;65.30;;;;;;5002486;28;20033;-70
2022/06/25 07:44:26;;;;;;;21.30;11.85;;;25.10;65.30;;;;;;5005214;28;20026;-69
2022/06/25 07:46:52;;;;;;;18.98;11.65;;;25.10;65.50;;;;;;4997250;28;20022;-69
2022/06/25 07:49:18;;;;;;;18.58;11.65;;;25.10;65.50;;;;;;5000762;28;20497;-69
2022/06/25 07:51:56;;;;;;;16.85;11.48;;;25.10;65.30;;;;;;5001542;28;20018;-74
2022/06/25 07:54:26;;;;;;;17.67;11.60;;;25.20;65.80;;;;;;5003902;28;20025;-74
2022/06/25 07:56:52;;;;;;;16.17;11.60;;;25.20;65.20;;;;;;5002739;28;20084;-74
2022/06/25 07:59:18;;;;;;;22.50;11.88;;;25.30;65.40;;;;;;4994236;28;20080;-73
2022/06/25 08:01:44;;;;;;;17.83;10.82;;;25.30;65.10;;;;;;4996047;28;20041;-73
2022/06/25 08:04:10;;;;;;;17.50;11.63;;;25.30;65.10;;;;;;5000498;28;20432;-70
2022/06/25 08:06:38;;;;;;;15.98;10.43;;;25.40;65.20;;;;;;4992271;28;20132;-71
2022/06/25 08:09:07;;;;;;;17.08;11.40;;;25.40;65.20;;;;;;4991813;28;20037;-71
2022/06/25 08:11:33;;;;;;;22.15;13.02;;;25.40;65.60;;;;;;4991331;28;20119;-71
2022/06/25 08:13:59;;;;;;;17.73;13.15;;;25.40;66.00;;;;;;5000328;28;20019;-71
2022/06/25 08:16:25;;;;;;;18.88;13.27;;;25.50;66.10;;;;;;5021986;28;20471;-71
2022/06/25 08:18:52;;;;;;;17.00;12.73;;;25.50;66.60;;;;;;5003850;28;20482;-71
2022/06/25 08:21:18;;;;;;;17.63;12.60;;;25.40;66.30;;;;;;5007534;28;20032;-71
2022/06/25 08:23:44;;;;;;;19.65;14.63;;;25.40;66.20;;;;;;5004861;28;20172;-71
2022/06/25 08:26:10;;;;;;;37.78;32.35;;;25.40;66.00;;;;;;5005152;28;20113;-71
2022/06/25 08:28:36;;;;;;;30.17;26.88;;;25.40;65.90;;;;;;5001342;28;20034;-71
2022/06/25 08:31:06;;;;;;;29.95;25.70;;;25.40;65.90;;;;;;4986253;28;20540;-72
2022/06/25 08:33:32;;;;;;;30.70;23.90;;;25.30;66.00;;;;;;5015849;28;20029;-72
2022/06/25 08:35:58;;;;;;;26.77;21.23;;;25.30;65.90;;;;;;4990859;28;20019;-72
2022/06/25 08:38:24;;;;;;;24.75;20.20;;;25.40;65.90;;;;;;5000352;28;20026;-72
2022/06/25 08:40:55;;;;;;;20.58;16.92;;;25.30;66.20;;;;;;4988365;28;20035;-71
2022/06/25 08:43:20;;;;;;;20.77;16.50;;;25.10;66.70;;;;;;4999562;28;20030;-72
2022/06/25 08:45:46;;;;;;;21.27;16.58;;;25.00;67.00;;;;;;4991011;28;20027;-72
2022/06/25 08:48:20;;;;;;;22.60;18.25;;;24.90;67.60;;;;;;4992200;28;20035;-73
2022/06/25 08:50:48;;;;;;;20.75;17.73;;;25.00;67.70;;;;;;4989652;28;20109;-72
2022/06/25 08:53:15;;;;;;;19.85;17.13;;;24.90;67.60;;;;;;4999268;28;20042;-72
2022/06/25 08:55:42;;;;;;;20.13;15.20;;;24.90;67.70;;;;;;5007622;28;20505;-72
2022/06/25 08:58:11;;;;;;;21.40;16.10;;;25.10;67.60;;;;;;4999580;28;20026;-73
2022/06/25 09:00:40;;;;;;;17.73;14.30;;;25.20;66.80;;;;;;4972412;28;20038;-73
2022/06/25 09:03:07;;;;;;;18.48;14.43;;;25.10;65.50;;;;;;4988806;28;20039;-72
2022/06/25 09:05:35;;;;;;;20.73;13.45;;;25.20;66.30;;;;;;5003421;28;20398;-72
2022/06/25 09:08:03;;;;;;;27.33;21.08;;;25.10;64.80;;;;;;4993176;28;20045;-72
2022/06/25 09:10:30;;;;;;;41.95;37.53;;;25.20;65.30;;;;;;4981198;28;20034;-72
2022/06/25 09:12:58;;;;;;;22.48;16.52;;;25.20;65.50;;;;;;4982677;28;20113;-73
2022/06/25 09:15:38;;;;;;;16.33;12.20;;;25.10;65.40;;;;;;4994670;28;20026;-72
2022/06/25 09:18:08;;;;;;;;;;;25.10;64.40;;;;;;4999059;28;20398;-72
2022/06/25 09:20:34;;;;;;;23.30;17.10;;;25.10;65.10;;;;;;4976082;28;20371;-72
2022/06/25 09:23:09;;;;;;;27.33;16.35;;;25.20;65.20;;;;;;4992533;28;20121;-72
2022/06/25 09:25:37;;;;;;;32.30;16.38;;;25.30;67.00;;;;;;4991332;28;20022;-72
2022/06/25 09:28:04;;;;;;;23.65;15.20;;;25.30;69.80;;;;;;4995047;28;20471;-71
2022/06/25 09:30:32;;;;;;;26.48;15.60;;;25.30;65.80;;;;;;4996100;28;20074;-72
2022/06/25 09:33:01;;;;;;;23.80;16.20;;;25.30;67.50;;;;;;4993573;28;20045;-75
2022/06/25 09:35:38;;;;;;;20.85;14.68;;;25.30;66.60;;;;;;4978045;28;20518;-74
2022/06/25 09:38:16;;;;;;;23.05;15.40;;;25.30;66.80;;;;;;5001522;28;20030;-76
2022/06/25 09:40:53;;;;;;;23.45;15.27;;;25.20;67.00;;;;;;4982366;28;20125;-75
2022/06/25 09:43:25;;;;;;;20.92;14.40;;;25.30;67.40;;;;;;4976890;28;20038;-76
2022/06/25 09:45:56;;;;;;;21.85;14.40;;;25.30;66.60;;;;;;5001601;28;20026;-76
2022/06/25 09:48:28;;;;;;;20.67;13.63;;;25.30;66.50;;;;;;5002319;28;20471;-76
2022/06/25 09:51:04;;;;;;;20.95;13.50;;;25.30;66.40;;;;;;5004668;28;20382;-76
2022/06/25 09:53:30;;;;;;;20.65;14.45;;;25.30;66.20;;;;;;4996540;28;20025;-75
2022/06/25 09:55:56;;;;;;;16.30;12.63;;;25.30;66.00;;;;;;4996742;28;20031;-75
2022/06/25 09:58:24;;;;;;;17.77;13.07;;;25.30;66.10;;;;;;4998754;28;20065;-75
2022/06/25 10:00:49;;;;;;;19.42;13.63;;;25.30;65.80;;;;;;4993751;28;20023;-75
2022/06/25 10:03:15;;;;;;;18.55;13.40;;;25.30;66.00;;;;;;4999098;28;20402;-75
2022/06/25 10:05:42;;;;;;;21.45;13.07;;;25.30;65.90;;;;;;5003354;28;20058;-75
2022/06/25 10:08:11;;;;;;;18.27;13.02;;;25.30;65.80;;;;;;4997350;28;20026;-75
2022/06/25 10:10:44;;;;;;;23.33;12.88;;;25.30;65.70;;;;;;5009001;28;20054;-75
2022/06/25 10:13:10;;;;;;;19.92;12.73;;;25.20;65.80;;;;;;4997609;28;20549;-75
2022/06/25 10:15:37;;;;;;;20.63;12.73;;;25.20;65.70;;;;;;5001543;28;20475;-75
2022/06/25 10:18:09;;;;;;;28.58;13.10;;;25.30;65.90;;;;;;5001685;28;20050;-77
2022/06/25 10:20:37;;;;;;;21.52;12.68;;;25.30;66.70;;;;;;4976597;28;20029;-74
2022/06/25 10:23:05;;;;;;;19.27;13.70;;;25.30;66.80;;;;;;4981017;28;20129;-73
2022/06/25 10:25:31;;;;;;;18.75;15.02;;;25.30;65.90;;;;;;5009498;28;20025;-71
2022/06/25 10:28:05;;;;;;;21.83;13.50;;;25.40;66.10;;;;;;4999617;28;20034;-72
2022/06/25 10:30:48;;;;;;;18.35;14.43;;;25.60;67.40;;;;;;5001372;28;20040;-72
2022/06/25 10:33:22;;;;;;;27.10;14.95;;;25.70;67.00;;;;;;5001733;28;20041;-74
2022/06/25 10:35:49;;;;;;;20.05;15.68;;;25.60;66.10;;;;;;5015099;28;20097;-74
2022/06/25 10:38:21;;;;;;;23.27;16.55;;;25.50;65.00;;;;;;4996133;28;20030;-74
2022/06/25 10:43:47;;;;;;;44.58;34.63;;;25.20;64.30;;;;;;4982110;28;20034;-74
2022/06/25 10:46:24;;;;;;;32.95;24.67;;;25.20;64.70;;;;;;4999336;28;20026;-73
2022/06/25 10:48:54;;;;;;;28.40;23.80;;;25.20;65.00;;;;;;4999221;28;20022;-74
2022/06/25 10:51:41;;;;;;;27.13;19.73;;;25.10;65.40;;;;;;5005311;28;20037;-74
2022/06/25 10:54:33;;;;;;;39.55;33.65;;;25.30;65.10;;;;;;5002235;28;20149;-75
2022/06/25 10:57:04;;;;;;;45.80;40.85;;;25.40;64.80;;;;;;4997147;28;20501;-74
2022/06/25 10:59:34;;;;;;;71.45;64.72;;;25.50;64.90;;;;;;5001229;28;20038;-75
2022/06/25 11:02:08;;;;;;;25.45;22.80;;;25.40;64.70;;;;;;4998655;28;20026;-75
2022/06/25 11:04:35;;;;;;;38.40;34.38;;;25.30;65.00;;;;;;4991764;28;20034;-74
2022/06/25 11:07:22;;;;;;;24.08;18.83;;;25.50;66.70;;;;;;4995336;28;20035;-75
2022/06/25 11:09:58;;;;;;;19.20;16.00;;;25.50;63.70;;;;;;5003591;28;20064;-74
2022/06/25 11:12:27;;;;;;;27.75;24.75;;;25.30;63.70;;;;;;4953653;28;20030;-74
2022/06/25 11:15:06;;;;;;;23.40;20.23;;;25.30;65.00;;;;;;5003362;28;20032;-74
2022/06/25 11:17:32;;;;;;;23.60;18.35;;;25.30;64.90;;;;;;4993186;28;20582;-72
2022/06/25 11:20:17;;;;;;;25.83;17.98;;;25.40;64.80;;;;;;4993473;28;20112;-74
2022/06/25 11:22:48;;;;;;;21.48;17.60;;;25.40;64.80;;;;;;4973911;28;20539;-73
2022/06/25 11:30:43;;;;;;;18.63;15.45;;;25.40;65.30;;;;;;4996857;28;20038;-69
2022/06/25 11:33:09;;;;;;;19.52;16.10;;;25.50;65.10;;;;;;4995639;28;20387;-69
2022/06/25 11:35:44;;;;;;;33.78;30.05;;;25.50;65.00;;;;;;5009726;28;20105;-69
2022/06/25 11:38:20;;;;;;;66.05;59.33;;;25.50;64.80;;;;;;5001097;28;20294;-69
2022/06/25 11:40:46;;;;;;;76.60;68.30;;;25.50;65.10;;;;;;4991882;28;20033;-69
2022/06/25 11:43:14;;;;;;;60.00;52.03;;;25.50;64.90;;;;;;4987681;28;20222;-68
2022/06/25 11:45:48;;;;;;;41.05;36.13;;;25.60;65.00;;;;;;4988075;28;20035;-68
2022/06/25 11:48:14;;;;;;;39.60;34.63;;;25.60;65.20;;;;;;4999596;28;20286;-68
2022/06/25 11:50:41;;;;;;;38.80;33.58;;;25.70;65.40;;;;;;4984320;28;20054;-68
2022/06/25 11:53:06;;;;;;;36.50;30.80;;;25.70;65.90;;;;;;4987024;28;20178;-68
2022/06/25 11:55:32;;;;;;;41.53;32.25;;;25.60;65.70;;;;;;5001375;28;20024;-68
2022/06/25 11:57:58;;;;;;;36.28;30.63;;;25.60;66.60;;;;;;4995039;28;20038;-68
2022/06/25 12:00:24;;;;;;;35.78;28.65;;;25.60;66.50;;;;;;4986978;28;20041;-73
2022/06/25 12:05:38;;;;;;;33.35;28.00;;;25.60;65.90;;;;;;4903062;29;20044;-78
2022/06/25 12:08:05;;;;;;;35.20;27.88;;;25.60;66.60;;;;;;4914791;29;20095;-78
2022/06/25 12:10:31;;;;;;;34.80;27.05;;;25.60;66.50;;;;;;4914826;29;20044;-77
2022/06/25 12:12:58;;;;;;;31.55;25.45;;;25.50;66.20;;;;;;4915852;29;20421;-77
2022/06/25 12:15:30;;;;;;;31.88;25.48;;;25.50;66.00;;;;;;4915966;29;20110;-78
2022/06/25 12:18:05;;;;;;;31.90;25.50;;;25.50;66.00;;;;;;4914630;29;20032;-77
2022/06/25 12:20:31;;;;;;;32.40;27.05;;;25.50;66.00;;;;;;4913431;29;20032;-78
2022/06/25 12:22:58;;;;;;;28.58;25.48;;;25.50;65.90;;;;;;4880721;29;20158;-78
2022/06/25 12:25:26;;;;;;;30.75;25.52;;;25.50;65.90;;;;;;4912787;29;20091;-77
2022/06/25 12:27:52;;;;;;;29.33;25.08;;;25.50;66.00;;;;;;4898401;29;20036;-78
2022/06/25 12:30:29;;;;;;;29.67;24.55;;;25.50;66.00;;;;;;4915133;29;20031;-78
2022/06/25 12:33:02;;;;;;;28.63;24.58;;;25.50;66.00;;;;;;4912088;29;20029;-78
2022/06/25 12:35:30;;;;;;;28.63;24.40;;;25.40;65.90;;;;;;4890033;29;20062;-78
2022/06/25 12:38:07;;;;;;;31.98;24.17;;;25.50;65.80;;;;;;4897925;29;20032;-78
2022/06/25 12:40:39;;;;;;;28.85;25.17;;;25.50;65.50;;;;;;4915502;29;20496;-77
2022/06/25 12:43:09;;;;;;;26.90;24.00;;;25.50;65.60;;;;;;4898687;29;20052;-77
2022/06/25 12:45:37;;;;;;;28.42;24.10;;;25.40;65.50;;;;;;4915459;29;20327;-78
2022/06/25 12:48:04;;;;;;;28.02;23.42;;;25.40;65.30;;;;;;4915638;29;20115;-78
2022/06/25 12:50:33;;;;;;;28.58;23.10;;;25.50;65.40;;;;;;4915343;29;20072;-78